Time;durP1;ratioP1;P1;durP2;ratioP2;P2;SDS_P1;SDS_P2;PMS_P1;PMS_P2;Temp;Humidity;BMP_temperature;BMP_pressure;BME280_temperature;BME280_humidity;BME280_pressure;Samples;Min_cycle;Max_cycle;Signal;HPM_P1;HPM_P2
2023/03/13 00:01:20;;;;;;;7.07;1.70;;;;;;;21.09;47.20;101306.88;5073957;28;20055;-49
2023/03/13 00:03:47;;;;;;;4.57;1.80;;;;;;;21.08;47.14;101307.88;5074744;28;20049;-49
2023/03/13 00:06:18;;;;;;;4.05;2.10;;;;;;;21.09;47.25;101310.41;5074591;28;20048;-50
2023/03/13 00:08:45;;;;;;;4.40;1.95;;;;;;;21.09;47.17;101306.88;5074485;28;20487;-50
2023/03/13 00:11:14;;;;;;;4.50;1.80;;;;;;;21.09;47.22;101306.88;5074215;28;20071;-50
2023/03/13 00:13:43;;;;;;;4.30;1.88;;;;;;;21.08;47.14;101305.19;5074014;28;20044;-51
2023/03/13 00:16:13;;;;;;;3.97;1.98;;;;;;;21.08;47.07;101295.25;5074335;28;20475;-48
2023/03/13 00:18:46;;;;;;;4.05;1.90;;;;;;;21.08;47.10;101294.41;5074512;28;20052;-50
2023/03/13 00:21:13;;;;;;;4.43;2.00;;;;;;;21.08;47.12;101305.19;5074338;28;20387;-48
2023/03/13 00:23:42;;;;;;;3.35;2.13;;;;;;;21.06;47.11;101302.59;5074220;28;20739;-47
2023/03/13 00:26:12;;;;;;;3.35;2.08;;;;;;;21.07;47.00;101309.72;5074274;28;20048;-49
2023/03/13 00:28:41;;;;;;;3.70;1.60;;;;;;;21.07;47.05;101312.41;5074272;28;20044;-50
2023/03/13 00:31:10;;;;;;;4.05;2.22;;;;;;;21.07;46.90;101315.09;5073125;28;20459;-49
2023/03/13 00:33:40;;;;;;;4.70;1.95;;;;;;;21.07;46.80;101314.25;5072927;28;20053;-49
2023/03/13 00:36:32;;;;;;;3.42;1.73;;;;;;;21.07;46.85;101320.47;5031849;28;20519;-47
2023/03/13 00:39:05;;;;;;;4.68;1.75;;;;;;;21.05;46.69;101311.66;5032041;28;20068;-51
2023/03/13 00:41:35;;;;;;;4.85;1.80;;;;;;;21.06;46.64;101320.59;5015511;28;20049;-49
2023/03/13 00:44:04;;;;;;;3.67;1.50;;;;;;;21.06;46.54;101317.91;5031934;28;20050;-47
2023/03/13 00:46:31;;;;;;;4.25;1.60;;;;;;;21.06;46.57;101317.91;5015496;28;20049;-48
2023/03/13 00:48:59;;;;;;;3.65;1.73;;;;;;;21.06;46.60;101312.50;5031714;28;20516;-48
2023/03/13 00:51:27;;;;;;;3.38;1.85;;;;;;;21.05;46.51;101311.66;5015215;28;20053;-47
2023/03/13 00:53:56;;;;;;;4.15;1.67;;;;;;;21.05;46.35;101321.59;5031793;28;20049;-49
2023/03/13 00:56:23;;;;;;;3.72;1.90;;;;;;;21.05;46.40;101322.44;5031678;28;20408;-49
2023/03/13 00:58:51;;;;;;;3.33;1.70;;;;;;;21.04;46.25;101318.03;5031712;28;20132;-51
2023/03/13 01:01:27;;;;;;;3.70;1.60;;;;;;;21.04;46.31;101314.50;5015623;28;20049;-49
2023/03/13 01:04:01;;;;;;;4.85;2.25;;;;;;;21.03;46.31;101308.28;5015358;28;20546;-48
2023/03/13 01:06:32;;;;;;;3.15;1.60;;;;;;;21.04;46.28;101309.13;5055562;28;20043;-48
2023/03/13 01:09:00;;;;;;;3.28;1.67;;;;;;;21.03;46.29;101308.28;5073645;28;20048;-52
2023/03/13 01:11:31;;;;;;;4.78;1.95;;;;;;;21.03;46.35;101310.97;5073641;28;20040;-47
2023/03/13 01:14:00;;;;;;;4.28;1.90;;;;;;;21.03;46.24;101307.41;5072733;28;20478;-50
2023/03/13 01:16:30;;;;;;;3.50;1.90;;;;;;;21.03;46.33;101307.41;5073655;28;20044;-50
2023/03/13 01:19:04;;;;;;;4.03;1.73;;;;;;;21.01;46.33;101302.16;5072534;28;20060;-49
2023/03/13 01:21:31;;;;;;;3.17;1.90;;;;;;;21.02;46.18;101305.69;5073579;28;20055;-46
2023/03/13 01:23:59;;;;;;;3.50;1.95;;;;;;;21.01;46.15;101299.44;5073386;28;20083;-50
2023/03/13 01:26:29;;;;;;;3.38;1.70;;;;;;;21.01;46.14;101301.28;5076741;28;20037;-49
2023/03/13 01:28:57;;;;;;;3.17;1.90;;;;;;;21.01;46.15;101290.53;5076650;28;20063;-48
2023/03/13 01:31:27;;;;;;;3.50;1.80;;;;;;;21.01;46.21;101293.22;5077861;28;20048;-48
2023/03/13 01:33:58;;;;;;;4.15;1.85;;;;;;;21.01;46.24;101282.44;5077753;28;20052;-51
2023/03/13 01:36:26;;;;;;;3.90;2.05;;;;;;;21.01;46.09;101282.44;5077863;28;20053;-49
2023/03/13 01:38:56;;;;;;;3.15;1.92;;;;;;;21.01;46.13;101277.91;5076495;28;20418;-49
2023/03/13 01:41:26;;;;;;;3.13;1.60;;;;;;;21.01;46.09;101280.63;5076471;28;20056;-48
2023/03/13 01:43:56;;;;;;;4.00;2.20;;;;;;;20.99;46.17;101270.00;5077479;28;20056;-49
2023/03/13 01:46:29;;;;;;;3.25;1.58;;;;;;;20.99;45.95;101267.28;5076329;28;20071;-49
2023/03/13 01:49:23;;;;;;;3.15;1.65;;;;;;;20.99;46.30;101264.59;5084371;28;20489;-48
2023/03/13 01:52:09;;;;;;;4.38;1.92;;;;;;;21.00;46.18;101262.75;5076258;28;20398;-49
2023/03/13 01:55:02;;;;;;;5.65;1.85;;;;;;;21.00;46.06;101260.06;5075712;28;20390;-46
2023/03/13 01:57:41;;;;;;;3.28;1.75;;;;;;;20.99;46.04;101253.00;5076238;28;20055;-47
2023/03/13 02:00:11;;;;;;;3.35;1.73;;;;;;;20.99;45.96;101256.53;5075623;28;20052;-47
2023/03/13 02:02:47;;;;;;;5.43;1.95;;;;;;;20.99;46.06;101247.59;5076771;28;20055;-49
2023/03/13 02:05:18;;;;;;;4.15;2.03;;;;;;;20.99;46.05;101251.16;5077202;28;20043;-47
2023/03/13 02:08:05;;;;;;;7.55;2.10;;;;;;;20.98;46.13;101249.44;5077230;28;20387;-48
2023/03/13 02:10:38;;;;;;;4.18;1.55;;;;;;;20.99;46.15;101253.84;5077021;28;20075;-49
2023/03/13 02:13:05;;;;;;;;;;;;;;;20.99;46.10;101248.47;5076512;28;20053;-50
2023/03/13 02:15:33;;;;;;;3.90;1.90;;;;;;;21.00;45.81;101241.22;5075963;28;19928;-49
2023/03/13 02:18:00;;;;;;;4.88;2.20;;;;;;;21.00;46.25;101238.53;5076863;28;20064;-48
2023/03/13 02:20:28;;;;;;;4.03;2.10;;;;;;;21.00;46.23;101227.78;5076887;28;20055;-48
2023/03/13 02:23:09;;;;;;;3.38;1.80;;;;;;;20.99;46.25;101216.16;5076778;28;20103;-50
2023/03/13 02:25:43;;;;;;;3.33;2.15;;;;;;;20.99;46.03;101221.53;5076407;28;20057;-50
2023/03/13 02:28:17;;;;;;;3.58;1.98;;;;;;;20.98;45.89;101208.19;5075615;28;20048;-49
2023/03/13 02:30:48;;;;;;;3.92;2.22;;;;;;;20.98;45.97;101221.66;5075560;28;20052;-50
2023/03/13 02:33:18;;;;;;;5.00;2.20;;;;;;;20.98;46.07;101211.75;5075302;28;20048;-49
2023/03/13 02:35:47;;;;;;;3.85;2.15;;;;;;;20.97;46.01;101204.66;5076661;28;20036;-47
2023/03/13 02:38:21;;;;;;;4.22;2.20;;;;;;;20.97;46.08;101203.81;5074805;28;20052;-48
2023/03/13 02:40:51;;;;;;;3.03;1.65;;;;;;;20.97;45.87;101217.25;5076657;28;20064;-48
2023/03/13 02:43:38;;;;;;;3.92;2.03;;;;;;;20.97;45.84;101211.88;5075004;28;20057;-50
2023/03/13 02:46:15;;;;;;;4.97;2.10;;;;;;;20.97;45.83;101209.19;5076377;28;20052;-51
2023/03/13 02:48:46;;;;;;;3.13;2.00;;;;;;;20.97;45.77;101207.34;5074912;28;20059;-47
2023/03/13 02:51:38;;;;;;;4.88;2.15;;;;;;;20.96;45.70;101212.88;5076194;28;20044;-51
2023/03/13 02:54:32;;;;;;;4.78;2.22;;;;;;;20.95;45.92;101217.41;5074845;28;20418;-47
2023/03/13 02:57:02;;;;;;;4.90;2.30;;;;;;;20.95;45.63;101219.25;5074776;28;20052;-48
2023/03/13 02:59:31;;;;;;;3.42;2.05;;;;;;;20.94;45.75;101222.91;5075307;28;20052;-49
2023/03/13 03:01:58;;;;;;;4.90;2.15;;;;;;;20.94;45.66;101234.56;5074954;28;20052;-48
2023/03/13 03:04:26;;;;;;;4.65;2.03;;;;;;;20.94;45.63;101237.25;5075016;28;20053;-48
2023/03/13 03:06:55;;;;;;;3.38;2.05;;;;;;;20.94;45.72;101231.84;5074851;28;20055;-48
2023/03/13 03:09:23;;;;;;;5.00;2.10;;;;;;;20.93;45.59;101232.81;5074553;28;20414;-50
2023/03/13 03:11:54;;;;;;;4.35;2.13;;;;;;;20.94;45.62;101239.06;5074707;28;20044;-47
2023/03/13 03:14:24;;;;;;;4.15;2.03;;;;;;;20.93;45.61;101240.91;5074596;28;20056;-47
2023/03/13 03:16:51;;;;;;;5.85;2.40;;;;;;;20.94;45.63;101239.06;5075788;28;20494;-49
2023/03/13 03:19:19;;;;;;;3.50;2.10;;;;;;;20.93;45.63;101238.19;5074699;28;20045;-47
2023/03/13 03:21:48;;;;;;;4.45;2.67;;;;;;;20.94;45.70;101230.97;5074629;28;20075;-50
2023/03/13 03:24:18;;;;;;;3.65;1.90;;;;;;;20.93;45.64;101231.97;5074621;28;20066;-51
2023/03/13 03:26:45;;;;;;;4.25;2.20;;;;;;;20.93;45.62;101234.66;5074257;28;20067;-48
2023/03/13 03:29:21;;;;;;;4.78;2.08;;;;;;;20.94;45.54;101241.75;5074360;28;20059;-49
2023/03/13 03:31:51;;;;;;;4.60;1.92;;;;;;;20.94;45.57;101244.44;5074407;28;20053;-48
2023/03/13 03:34:19;;;;;;;4.82;2.13;;;;;;;20.93;45.51;101242.72;5075584;28;20056;-49
2023/03/13 03:36:46;;;;;;;4.60;1.92;;;;;;;20.92;45.70;101247.28;5074086;28;20048;-48
2023/03/13 03:39:14;;;;;;;3.58;2.10;;;;;;;20.93;45.60;101250.81;5074219;28;20059;-51
2023/03/13 03:41:41;;;;;;;5.43;2.40;;;;;;;20.93;45.61;101261.56;5073966;28;20048;-47
2023/03/13 03:44:10;;;;;;;2.90;1.98;;;;;;;20.92;45.53;101259.88;5073799;28;20059;-49
2023/03/13 03:46:51;;;;;;;3.65;1.98;;;;;;;20.92;45.52;101259.88;5074057;28;20048;-51
2023/03/13 03:49:20;;;;;;;3.65;2.15;;;;;;;20.93;45.63;101256.19;5073055;28;20055;-47
2023/03/13 03:51:48;;;;;;;3.55;2.22;;;;;;;20.93;45.57;101261.56;5073999;28;20501;-51
2023/03/13 03:54:20;;;;;;;3.00;1.73;;;;;;;20.92;45.56;101257.19;5073760;28;20061;-49
2023/03/13 03:56:48;;;;;;;4.55;2.30;;;;;;;20.90;45.45;101249.25;5073712;28;20052;-49
2023/03/13 03:59:15;;;;;;;5.03;2.20;;;;;;;20.91;45.42;101237.50;5073824;28;20045;-49
2023/03/13 04:01:46;;;;;;;4.80;2.20;;;;;;;20.91;45.46;101234.81;5073862;28;20060;-47
2023/03/13 04:04:18;;;;;;;3.33;1.83;;;;;;;20.90;45.43;101230.41;5073667;28;20402;-47
2023/03/13 04:06:49;;;;;;;3.83;2.45;;;;;;;20.91;45.46;101228.56;5073696;28;20055;-47
2023/03/13 04:09:17;;;;;;;3.50;1.90;;;;;;;20.90;45.41;101241.19;5073600;28;20049;-47
2023/03/13 04:12:00;;;;;;;3.55;2.17;;;;;;;20.90;45.41;101235.81;5071325;28;20059;-47
2023/03/13 04:14:29;;;;;;;4.30;2.10;;;;;;;20.90;45.41;101235.81;5073273;28;20055;-49
2023/03/13 04:16:58;;;;;;;3.03;2.17;;;;;;;20.89;45.40;101236.75;5073524;28;20072;-48
2023/03/13 04:19:25;;;;;;;3.25;1.98;;;;;;;20.90;45.35;101234.91;5073433;28;20055;-47
2023/03/13 04:21:53;;;;;;;3.75;2.10;;;;;;;20.89;45.43;101242.16;5074427;28;20067;-48
2023/03/13 04:24:21;;;;;;;2.88;1.80;;;;;;;20.89;45.33;101235.91;5073261;28;20131;-48
2023/03/13 04:26:48;;;;;;;3.92;2.22;;;;;;;20.88;45.38;101245.81;5073103;28;20045;-49
2023/03/13 04:29:15;;;;;;;4.47;2.25;;;;;;;20.88;45.42;101248.53;5074418;28;20040;-49
2023/03/13 04:32:03;;;;;;;3.22;1.98;;;;;;;20.89;45.33;101252.06;5073075;28;20056;-50
2023/03/13 04:34:58;;;;;;;6.63;2.40;;;;;;;20.88;45.37;101261.97;5073244;28;20060;-51
2023/03/13 04:37:44;;;;;;;3.47;1.90;;;;;;;20.89;45.48;101268.22;5081155;28;20052;-48
2023/03/13 04:40:29;;;;;;;4.03;2.20;;;;;;;20.88;45.37;101263.81;5081260;28;20052;-49
2023/03/13 04:43:44;;;;;;;3.70;2.08;;;;;;;20.88;45.48;101258.44;5073716;28;20502;-46
2023/03/13 04:46:25;;;;;;;3.28;2.25;;;;;;;20.87;45.48;101270.19;5073078;28;20414;-47
2023/03/13 04:49:21;;;;;;;3.95;2.22;;;;;;;20.88;45.49;101279.97;5072458;28;20049;-47
2023/03/13 04:52:15;;;;;;;2.80;1.80;;;;;;;20.86;45.38;101279.22;5074048;28;20049;-46
2023/03/13 04:55:08;;;;;;;3.95;2.20;;;;;;;20.86;45.55;101290.84;5073427;28;20052;-46
2023/03/13 04:57:52;;;;;;;4.70;2.50;;;;;;;20.87;45.50;101289.03;5072483;28;20052;-49
2023/03/13 05:00:55;;;;;;;3.80;2.10;;;;;;;20.87;45.52;101291.72;5071876;28;20059;-48
2023/03/13 05:03:31;;;;;;;3.67;1.90;;;;;;;20.86;45.51;101295.38;5074064;28;20059;-49
2023/03/13 05:06:18;;;;;;;2.97;1.80;;;;;;;20.86;45.47;101306.13;5072754;28;20063;-48
2023/03/13 05:09:08;;;;;;;3.92;1.77;;;;;;;20.86;45.82;101304.28;5073097;28;20490;-48
2023/03/13 05:11:40;;;;;;;3.40;2.03;;;;;;;20.86;45.72;101301.59;5073676;28;20052;-49
2023/03/13 05:14:37;;;;;;;4.07;2.22;;;;;;;20.87;45.86;101310.56;5073519;28;20348;-49
2023/03/13 05:17:22;;;;;;;4.53;2.20;;;;;;;20.87;45.62;101299.78;5080661;28;20056;-47
2023/03/13 05:19:56;;;;;;;4.68;2.17;;;;;;;20.86;45.47;101285.47;5072764;28;20053;-50
2023/03/13 05:22:36;;;;;;;3.70;2.28;;;;;;;20.86;45.65;101296.22;5072516;28;20494;-49
2023/03/13 05:25:15;;;;;;;4.25;2.53;;;;;;;20.87;45.79;101299.78;5072523;28;20056;-50
2023/03/13 05:28:08;;;;;;;4.68;2.00;;;;;;;20.86;45.67;101319.59;5073090;28;20053;-47
2023/03/13 05:31:02;;;;;;;4.63;1.90;;;;;;;20.86;45.62;101327.66;5073242;28;20060;-48
2023/03/13 05:33:50;;;;;;;4.45;2.20;;;;;;;20.84;45.53;101325.13;5080363;28;20056;-49
2023/03/13 05:36:27;;;;;;;3.88;2.05;;;;;;;20.85;45.58;101331.34;5057535;28;20048;-51
2023/03/13 05:39:17;;;;;;;4.85;2.15;;;;;;;20.84;45.49;101337.72;5073252;28;20127;-51
2023/03/13 05:41:47;;;;;;;3.47;2.03;;;;;;;20.83;45.68;101331.50;5073272;28;20049;-50
2023/03/13 05:44:33;;;;;;;4.18;2.00;;;;;;;20.83;45.54;101334.19;5080448;28;20063;-48
2023/03/13 05:47:33;;;;;;;4.60;2.20;;;;;;;20.83;45.54;101323.41;5072599;28;20045;-48
2023/03/13 05:50:17;;;;;;;3.92;1.58;;;;;;;20.84;45.67;101324.28;5072353;28;20049;-47
2023/03/13 05:52:53;;;;;;;3.15;2.05;;;;;;;20.83;45.46;101327.94;5078692;28;20053;-50
2023/03/13 05:55:39;;;;;;;4.63;2.38;;;;;;;20.82;45.68;101332.44;5080484;28;20055;-51
2023/03/13 05:58:24;;;;;;;4.20;1.90;;;;;;;20.82;45.61;101328.91;5080047;28;20051;-50
2023/03/13 06:01:13;;;;;;;4.13;2.08;;;;;;;20.82;45.62;101331.59;5072323;28;20060;-50
2023/03/13 06:03:51;;;;;;;6.00;2.05;;;;;;;20.81;45.69;101328.06;5073361;28;20057;-49
2023/03/13 06:06:19;;;;;;;4.10;2.15;;;;;;;20.81;45.79;101329.91;5071925;28;20052;-49
2023/03/13 06:08:52;;;;;;;;;;;;;;;20.81;45.77;101335.28;5072225;28;20048;-50
2023/03/13 06:11:21;;;;;;;3.88;2.40;;;;;;;20.81;45.70;101330.75;5071965;28;19927;-48
2023/03/13 06:13:55;;;;;;;4.95;2.33;;;;;;;20.80;45.62;101323.66;5075822;28;20403;-52
2023/03/13 06:16:28;;;;;;;;;;;;;;;20.80;45.67;101334.44;5076406;28;20395;-50
2023/03/13 06:19:17;;;;;;;4.65;2.42;;;;;;;20.79;45.62;101332.72;5076778;28;19927;-48
2023/03/13 06:21:44;;;;;;;5.68;2.70;;;;;;;20.80;45.57;101338.97;5076797;28;20051;-49
2023/03/13 06:24:12;;;;;;;3.55;2.40;;;;;;;20.80;45.80;101344.34;5076563;28;20530;-49
2023/03/13 06:26:39;;;;;;;3.95;2.05;;;;;;;20.80;45.50;101338.97;5076746;28;20048;-51
2023/03/13 06:29:06;;;;;;;4.95;1.95;;;;;;;20.78;45.54;101336.38;5076524;28;20047;-50
2023/03/13 06:31:33;;;;;;;3.55;2.13;;;;;;;20.79;45.60;101350.72;5076667;28;20048;-51
2023/03/13 06:34:01;;;;;;;4.78;2.05;;;;;;;20.78;45.55;101347.16;5076642;28;20052;-49
2023/03/13 06:36:28;;;;;;;4.88;1.92;;;;;;;20.78;45.56;101349.00;5076633;28;20045;-49
2023/03/13 06:38:56;;;;;;;2.90;1.80;;;;;;;20.78;45.74;101352.53;5076291;28;20052;-48
2023/03/13 06:41:23;;;;;;;4.18;2.20;;;;;;;20.79;45.47;101353.41;5076504;28;20466;-48
2023/03/13 06:43:50;;;;;;;4.07;2.20;;;;;;;20.79;45.53;101348.88;5076816;28;20371;-48
2023/03/13 06:46:21;;;;;;;3.95;2.17;;;;;;;20.78;45.56;101335.53;5076388;28;20056;-51
2023/03/13 06:48:49;;;;;;;3.78;2.13;;;;;;;20.78;45.65;101331.00;5076379;28;20064;-49
2023/03/13 06:51:19;;;;;;;5.85;2.50;;;;;;;20.79;45.52;101331.88;5076109;28;20048;-47
2023/03/13 06:53:47;;;;;;;3.88;2.10;;;;;;;20.78;45.42;101338.22;5076171;28;20479;-47
2023/03/13 06:56:15;;;;;;;3.83;2.10;;;;;;;20.79;45.58;101337.25;5076190;28;20044;-47
2023/03/13 06:58:47;;;;;;;3.65;2.20;;;;;;;20.78;45.51;101347.16;5076161;28;20043;-47
2023/03/13 07:01:16;;;;;;;4.70;2.50;;;;;;;20.77;45.44;101334.69;5076304;28;20049;-47
2023/03/13 07:03:43;;;;;;;4.78;2.47;;;;;;;20.78;45.51;101330.16;5075986;28;20051;-52
2023/03/13 07:06:31;;;;;;;3.92;1.88;;;;;;;20.78;45.64;101325.63;5074806;28;20044;-48
2023/03/13 07:08:58;;;;;;;3.60;2.03;;;;;;;20.78;45.45;101336.38;5074682;28;20048;-48
2023/03/13 07:11:26;;;;;;;5.15;2.25;;;;;;;20.78;45.60;101336.38;5075772;28;20052;-49
2023/03/13 07:13:55;;;;;;;5.28;2.00;;;;;;;20.77;45.41;101345.44;5075848;28;20115;-48
2023/03/13 07:16:41;;;;;;;4.40;2.25;;;;;;;20.78;45.61;101343.59;5075725;28;20407;-50
2023/03/13 07:19:08;;;;;;;4.32;2.08;;;;;;;20.77;45.44;101339.22;5075784;28;20052;-48
2023/03/13 07:21:36;;;;;;;4.05;2.00;;;;;;;20.77;45.50;101340.06;5075585;28;20055;-48
2023/03/13 07:24:03;;;;;;;4.93;1.98;;;;;;;20.78;45.58;101335.53;5075454;28;20406;-48
2023/03/13 07:26:31;;;;;;;4.57;2.20;;;;;;;20.78;45.56;101346.28;5075453;28;20509;-47
2023/03/13 07:28:58;;;;;;;4.45;2.25;;;;;;;20.77;45.55;101339.22;5075213;28;20398;-49
2023/03/13 07:31:26;;;;;;;3.10;2.03;;;;;;;20.77;45.67;101352.66;5075184;28;20047;-47
2023/03/13 07:33:56;;;;;;;4.38;2.80;;;;;;;20.77;45.69;101360.75;5075340;28;20056;-49
2023/03/13 07:36:24;;;;;;;4.15;2.00;;;;;;;20.77;45.57;101358.06;5075318;28;20466;-47
2023/03/13 07:38:51;;;;;;;7.88;2.20;;;;;;;20.78;45.53;101357.06;5075272;28;20067;-50
2023/03/13 07:41:19;;;;;;;4.65;2.08;;;;;;;20.76;45.70;101346.44;5075316;28;20044;-48
2023/03/13 07:43:47;;;;;;;3.47;1.88;;;;;;;20.76;45.74;101348.28;5075053;28;20052;-47
2023/03/13 07:46:20;;;;;;;5.47;2.28;;;;;;;20.76;45.70;101342.91;5075063;28;20060;-47
2023/03/13 07:48:47;;;;;;;3.40;1.95;;;;;;;20.77;45.47;101366.13;5075054;28;20380;-51
2023/03/13 07:51:23;;;;;;;4.53;2.10;;;;;;;20.78;46.07;101357.06;5073500;28;20044;-50
2023/03/13 07:54:08;;;;;;;5.03;2.55;;;;;;;20.78;45.40;101347.16;5075053;28;20045;-52
2023/03/13 07:56:36;;;;;;;5.20;2.75;;;;;;;20.78;45.55;101332.84;5073720;28;20051;-49
2023/03/13 07:59:03;;;;;;;5.85;2.20;;;;;;;20.80;45.54;101333.59;5074905;28;20041;-49
2023/03/13 08:01:31;;;;;;;4.15;2.25;;;;;;;20.79;45.60;101332.72;5074849;28;20047;-50
2023/03/13 08:04:02;;;;;;;5.18;2.30;;;;;;;20.80;45.79;101337.13;5074588;28;20616;-50
2023/03/13 08:06:31;;;;;;;6.13;1.85;;;;;;;20.80;45.81;101325.50;5074703;28;20051;-51
2023/03/13 08:09:01;;;;;;;4.57;2.40;;;;;;;20.81;45.91;101332.59;5074602;28;20045;-48
2023/03/13 08:11:28;;;;;;;4.35;2.83;;;;;;;20.83;45.38;101333.34;5074807;28;20048;-56
2023/03/13 08:13:57;;;;;;;8.27;3.03;;;;;;;20.84;45.86;101327.81;5074762;28;20044;-56
2023/03/13 08:16:31;;;;;;;6.53;2.63;;;;;;;20.86;45.96;101333.06;5074587;28;20493;-55
2023/03/13 08:18:59;;;;;;;6.78;2.80;;;;;;;20.85;46.00;101340.28;5074426;28;20474;-49
2023/03/13 08:21:29;;;;;;;6.82;3.05;;;;;;;20.87;45.85;101334.78;5073646;28;20052;-57
2023/03/13 08:23:58;;;;;;;9.30;3.65;;;;;;;20.87;44.91;101340.16;5073882;28;20372;-56
2023/03/13 08:26:28;;;;;;;10.20;4.13;;;;;;;20.87;45.13;101346.41;5073822;28;20048;-55
2023/03/13 08:29:05;;;;;;;5.82;3.97;;;;;;;20.88;44.57;101344.56;5074000;28;20522;-56
2023/03/13 08:31:41;;;;;;;6.10;4.28;;;;;;;20.86;44.28;101339.28;5073823;28;20146;-56
2023/03/13 08:34:10;;;;;;;8.57;4.85;;;;;;;20.86;44.34;101343.81;5073617;28;20052;-53
2023/03/13 08:36:38;;;;;;;7.30;4.40;;;;;;;20.85;44.28;101347.50;5073577;28;20391;-56
2023/03/13 08:39:10;;;;;;;8.93;4.60;;;;;;;20.84;43.95;101351.19;5073060;28;20542;-55
2023/03/13 08:41:39;;;;;;;7.60;5.18;;;;;;;20.83;44.16;101347.63;5073060;28;20056;-56
2023/03/13 08:44:10;;;;;;;7.78;5.10;;;;;;;20.82;43.73;101345.06;5074662;28;20052;-55
2023/03/13 08:46:37;;;;;;;8.52;4.32;;;;;;;20.82;44.25;101342.38;5073809;28;20055;-57
2023/03/13 08:49:07;;;;;;;8.57;4.22;;;;;;;20.82;44.56;101331.59;5073547;28;20041;-57
2023/03/13 08:51:34;;;;;;;6.40;4.07;;;;;;;20.84;45.11;101337.72;5072262;28;20060;-58
2023/03/13 08:54:03;;;;;;;7.97;3.45;;;;;;;20.84;45.30;101341.25;5073619;28;20398;-48
2023/03/13 08:56:31;;;;;;;6.78;4.20;;;;;;;20.85;44.33;101351.03;5073528;28;20048;-49
2023/03/13 08:59:00;;;;;;;5.63;3.63;;;;;;;20.89;45.17;101343.56;5073748;28;20052;-49
2023/03/13 09:01:30;;;;;;;6.45;3.80;;;;;;;20.89;44.99;101347.09;5073547;28;20048;-47
2023/03/13 09:03:59;;;;;;;6.38;3.00;;;;;;;20.91;45.25;101342.47;5073250;28;20055;-52
2023/03/13 09:06:34;;;;;;;8.65;4.03;;;;;;;20.93;44.97;101339.63;5073565;28;20375;-53
2023/03/13 09:09:02;;;;;;;8.80;3.85;;;;;;;20.94;44.33;101341.31;5073422;28;20045;-51
2023/03/13 09:11:32;;;;;;;4.60;3.35;;;;;;;20.95;44.78;101343.06;5073244;28;20487;-51
2023/03/13 09:13:59;;;;;;;5.72;3.35;;;;;;;20.96;45.18;101350.16;5073462;28;20394;-54
2023/03/13 09:16:28;;;;;;;4.35;2.45;;;;;;;20.97;45.57;101351.84;5073484;28;20051;-48
2023/03/13 09:18:57;;;;;;;8.82;3.45;;;;;;;20.99;45.64;101366.03;5073276;28;20406;-49
2023/03/13 09:21:25;;;;;;;5.93;3.33;;;;;;;21.00;45.58;101367.75;5073377;28;20055;-57
2023/03/13 09:23:53;;;;;;;5.75;3.22;;;;;;;21.01;45.57;101366.75;5073004;28;20067;-56
2023/03/13 09:26:21;;;;;;;5.38;3.45;;;;;;;21.04;45.53;101354.88;5053265;28;20053;-55
2023/03/13 09:28:51;;;;;;;5.60;3.25;;;;;;;21.04;45.65;101357.56;5053093;28;20056;-49
2023/03/13 09:31:24;;;;;;;7.75;3.47;;;;;;;21.04;45.60;101347.66;5052982;28;20056;-56
2023/03/13 09:33:52;;;;;;;11.02;3.03;;;;;;;21.05;45.79;101348.50;5053030;28;20045;-53
2023/03/13 09:36:22;;;;;;;4.57;2.92;;;;;;;21.05;45.81;101348.50;5052946;28;20048;-51
2023/03/13 09:38:52;;;;;;;5.85;3.25;;;;;;;21.06;45.67;101340.28;5053074;28;20048;-52
2023/03/13 09:41:44;;;;;;;5.65;3.75;;;;;;;21.06;45.61;101345.66;5053140;28;20048;-55
2023/03/13 09:44:35;;;;;;;7.85;3.70;;;;;;;21.06;45.69;101348.34;5053217;28;20060;-50
2023/03/13 09:47:25;;;;;;;6.70;3.72;;;;;;;21.07;45.70;101341.16;5053576;28;20064;-52
2023/03/13 09:50:04;;;;;;;5.55;3.05;;;;;;;21.07;45.60;101339.31;5057034;28;20041;-47
2023/03/13 09:52:39;;;;;;;5.90;3.28;;;;;;;21.08;45.72;101342.88;5057049;28;20052;-56
2023/03/13 09:55:26;;;;;;;5.78;3.50;;;;;;;21.08;45.77;101343.72;5056994;28;20427;-56
2023/03/13 09:58:07;;;;;;;4.57;3.22;;;;;;;21.09;45.90;101344.56;5056853;28;20045;-55
2023/03/13 10:00:39;;;;;;;6.50;3.90;;;;;;;21.10;45.95;101340.88;5056950;28;20048;-52
2023/03/13 10:03:16;;;;;;;6.13;3.30;;;;;;;21.09;45.99;101340.03;5056826;28;20049;-56
2023/03/13 10:05:57;;;;;;;4.88;3.03;;;;;;;21.10;45.97;101338.19;5057088;28;20049;-58
2023/03/13 10:08:30;;;;;;;6.28;3.50;;;;;;;21.11;45.89;101339.91;5056885;28;20475;-57
2023/03/13 10:11:03;;;;;;;7.00;4.05;;;;;;;21.09;44.89;101325.72;5056628;28;20052;-58
2023/03/13 10:13:38;;;;;;;7.45;3.42;;;;;;;21.09;45.73;101331.09;5056707;28;20045;-48
2023/03/13 10:16:13;;;;;;;6.65;3.40;;;;;;;21.09;45.83;101333.78;5056363;28;20049;-57
2023/03/13 10:18:51;;;;;;;5.88;3.60;;;;;;;21.09;45.98;101334.66;5056630;28;20356;-57
2023/03/13 10:21:21;;;;;;;5.40;3.30;;;;;;;21.10;45.92;101336.34;5056558;28;20044;-54
2023/03/13 10:24:13;;;;;;;9.32;3.33;;;;;;;21.10;45.93;101330.97;5056444;28;20057;-57
2023/03/13 10:26:40;;;;;;;4.60;3.00;;;;;;;21.10;45.76;101330.09;5056376;28;20049;-57
2023/03/13 10:29:29;;;;;;;5.45;3.67;;;;;;;21.11;45.67;101324.63;5056274;28;20059;-57
2023/03/13 10:31:59;;;;;;;7.95;4.05;;;;;;;21.10;45.71;101314.81;5056278;28;20049;-48
2023/03/13 10:34:48;;;;;;;5.85;3.45;;;;;;;21.11;45.63;101321.91;5056359;28;20045;-57
2023/03/13 10:37:20;;;;;;;6.53;3.72;;;;;;;21.10;45.83;101320.19;5055435;28;20380;-49
2023/03/13 10:39:47;;;;;;;4.15;2.75;;;;;;;21.10;45.77;101317.50;5056255;28;20048;-57
2023/03/13 10:42:25;;;;;;;4.93;3.22;;;;;;;21.12;46.09;101320.09;5055997;28;20052;-56
2023/03/13 10:45:03;;;;;;;6.55;3.35;;;;;;;21.12;45.98;101312.84;5056146;28;20476;-56
2023/03/13 10:47:34;;;;;;;4.53;2.95;;;;;;;21.13;46.04;101303.78;5056022;28;20048;-57
2023/03/13 10:50:03;;;;;;;5.40;3.10;;;;;;;21.13;45.99;101300.25;5055726;28;20052;-55
2023/03/13 10:52:41;;;;;;;8.38;3.75;;;;;;;21.13;45.65;101294.84;5055853;28;20045;-54
2023/03/13 10:55:12;;;;;;;6.93;3.63;;;;;;;21.12;45.70;101291.31;5055814;28;20045;-57
2023/03/13 10:57:43;;;;;;;4.30;2.70;;;;;;;21.12;45.82;101296.69;5055275;28;20049;-51
2023/03/13 11:00:33;;;;;;;6.47;3.33;;;;;;;21.12;45.86;101274.31;5065916;28;20045;-53
2023/03/13 11:03:12;;;;;;;4.60;3.08;;;;;;;21.13;46.06;101265.25;5075525;28;20051;-53
2023/03/13 11:05:42;;;;;;;7.90;3.58;;;;;;;21.13;46.18;101255.31;5074453;28;20049;-57
2023/03/13 11:08:15;;;;;;;6.57;2.85;;;;;;;21.12;46.12;101250.09;5076050;28;20059;-57
2023/03/13 11:11:04;;;;;;;5.03;3.03;;;;;;;21.12;46.13;101256.31;5095761;28;20363;-57
2023/03/13 11:13:52;;;;;;;5.20;3.10;;;;;;;21.12;46.27;101250.94;5095420;28;20055;-50
2023/03/13 11:16:27;;;;;;;5.25;3.15;;;;;;;21.12;46.22;101250.94;5079811;28;20059;-52
2023/03/13 11:19:26;;;;;;;6.40;3.42;;;;;;;21.12;46.09;101252.78;5088998;28;20052;-52
2023/03/13 11:22:12;;;;;;;6.80;3.05;;;;;;;21.13;46.00;101258.00;5066842;28;20497;-56
2023/03/13 11:25:03;;;;;;;6.35;2.85;;;;;;;21.14;46.27;101266.94;5094812;28;20051;-58
2023/03/13 11:27:50;;;;;;;5.20;2.80;;;;;;;21.15;46.03;101260.59;5075025;28;20055;-57
2023/03/13 11:30:30;;;;;;;4.22;2.47;;;;;;;21.15;46.03;101271.38;5075162;28;20048;-57
2023/03/13 11:33:09;;;;;;;6.13;2.85;;;;;;;21.15;46.12;101274.06;5086520;28;20442;-54
2023/03/13 11:35:48;;;;;;;6.65;3.60;;;;;;;21.12;45.54;101259.00;5078426;28;20044;-59
2023/03/13 11:38:22;;;;;;;5.18;3.58;;;;;;;21.10;45.47;101252.03;5089200;28;20379;-57
2023/03/13 11:41:18;;;;;;;6.88;3.88;;;;;;;21.06;45.96;101254.13;5077825;28;20488;-54
2023/03/13 11:44:30;;;;;;;5.50;2.83;;;;;;;21.06;46.10;101239.84;5095233;28;20044;-52
2023/03/13 11:47:35;;;;;;;3.50;2.35;;;;;;;21.06;46.11;101237.13;5090962;28;20437;-52
2023/03/13 11:50:13;;;;;;;4.63;2.58;;;;;;;21.08;46.27;101227.09;5043332;28;20048;-48
2023/03/13 11:53:15;;;;;;;3.97;2.42;;;;;;;21.09;46.04;101221.56;5092666;28;20457;-50
2023/03/13 11:56:04;;;;;;;5.97;2.40;;;;;;;21.10;46.12;101217.88;5082841;28;20454;-51
2023/03/13 11:58:43;;;;;;;6.60;2.85;;;;;;;21.10;46.09;101215.19;5092634;28;20060;-49
2023/03/13 12:01:17;;;;;;;6.55;3.03;;;;;;;21.12;46.64;101205.16;5092474;28;20052;-48